Time;durP1;ratioP1;P1;durP2;ratioP2;P2;SDS_P1;SDS_P2;PMS_P1;PMS_P2;Temp;Humidity;BMP_temperature;BMP_pressure;BME280_temperature;BME280_humidity;BME280_pressure;Samples;Min_cycle;Max_cycle;Signal;HPM_P1;HPM_P2
2022/08/23 00:01:19;;;;;;;3.57;1.20;;;;;;;18.94;100.00;100687.44;5145732;57;1141257;-68
2022/08/23 00:06:26;;;;;;;3.70;1.47;;;;;;;18.93;100.00;100679.90;5125671;57;1141205;-65
2022/08/23 00:11:48;;;;;;;4.35;1.60;;;;;;;18.93;100.00;100683.92;5078793;57;1141168;-65
2022/08/23 00:16:56;;;;;;;6.87;1.40;;;;;;;18.93;100.00;100674.53;5086597;57;1141159;-65
2022/08/23 00:22:02;;;;;;;4.45;1.70;;;;;;;18.95;100.00;100678.36;5042956;58;1141367;-68
2022/08/23 00:27:17;;;;;;;3.35;1.60;;;;;;;18.92;100.00;100685.42;5026495;58;1141197;-67
2022/08/23 00:32:27;;;;;;;3.83;1.40;;;;;;;18.90;100.00;100674.03;4985162;58;1141341;-64
2022/08/23 00:37:33;;;;;;;5.37;1.32;;;;;;;18.89;100.00;100675.88;4985231;58;1141224;-67
2022/08/23 00:48:19;;;;;;;7.90;1.40;;;;;;;18.89;100.00;100662.97;4985335;58;1141132;-66
2022/08/23 00:53:31;;;;;;;6.00;1.82;;;;;;;18.87;100.00;100658.28;4985401;58;1141336;-66
2022/08/23 00:58:38;;;;;;;3.98;1.52;;;;;;;18.89;100.00;100655.77;5030954;57;1141072;-68
2022/08/23 01:03:48;;;;;;;6.62;1.95;;;;;;;18.92;100.00;100658.13;5066098;57;1141364;-67
2022/08/23 01:09:01;;;;;;;4.65;1.85;;;;;;;18.92;100.00;100659.96;5066151;57;1141141;-68
2022/08/23 01:14:17;;;;;;;3.55;1.50;;;;;;;18.82;100.00;100647.22;5066093;57;1141117;-68
2022/08/23 01:19:31;;;;;;;4.95;2.08;;;;;;;18.70;100.00;100652.59;5060415;57;1141138;-66
2022/08/23 01:24:39;;;;;;;9.96;2.34;;;;;;;18.70;100.00;100652.59;5065863;57;1139085;-69
2022/08/23 01:29:46;;;;;;;1.85;1.50;;;;;;;18.68;100.00;100655.94;5169948;56;1138909;-68
2022/08/23 01:34:53;;;;;;;11.25;2.35;;;;;;;18.69;100.00;100657.12;5227618;56;1139037;-68
2022/08/23 01:39:59;;;;;;;3.20;1.80;;;;;;;18.72;100.00;100662.14;5227644;56;1141131;-68
2022/08/23 01:45:06;;;;;;;5.85;2.27;;;;;;;18.72;100.00;100662.14;5227698;56;1139052;-67
2022/08/23 01:50:13;;;;;;;4.67;1.80;;;;;;;18.66;100.00;100652.09;5227599;56;1138972;-64
2022/08/23 01:55:21;;;;;;;4.92;1.77;;;;;;;18.63;100.00;100647.09;5227941;56;1139028;-65
2022/08/23 02:00:38;;;;;;;4.00;1.57;;;;;;;18.68;100.00;100648.74;5221995;56;1138989;-67
2022/08/23 02:05:44;;;;;;;4.00;1.80;;;;;;;18.74;100.00;100658.80;5227531;56;1139021;-67
2022/08/23 02:10:51;;;;;;;6.08;2.10;;;;;;;18.75;100.00;100660.98;5227646;56;1138987;-67
2022/08/23 02:15:58;;;;;;;8.68;3.33;;;;;;;18.72;100.00;100660.80;5227631;56;1139173;-68
2022/08/23 02:21:05;;;;;;;5.05;1.67;;;;;;;18.73;100.00;100661.64;5227628;56;1139050;-66
2022/08/23 02:26:11;;;;;;;5.20;2.10;;;;;;;18.70;100.00;100667.33;5227563;56;1139035;-67
2022/08/23 02:31:18;;;;;;;4.62;1.47;;;;;;;18.72;100.00;100666.67;5158939;56;1139049;-65
2022/08/23 02:36:24;;;;;;;4.95;2.37;;;;;;;18.78;100.00;100674.05;5127384;57;1137142;-67
2022/08/23 02:41:31;;;;;;;4.67;2.10;;;;;;;18.77;100.00;100677.73;5128254;56;1136962;-68
2022/08/23 02:46:40;;;;;;;7.42;2.25;;;;;;;18.80;100.00;100670.67;5128230;56;1141510;-65
2022/08/23 02:51:47;;;;;;;4.63;1.87;;;;;;;18.77;100.00;100676.39;5187726;56;1141047;-65
2022/08/23 02:56:53;;;;;;;3.00;1.70;;;;;;;18.66;100.00;100672.69;5213908;56;1141239;-68
2022/08/23 03:01:59;;;;;;;4.33;2.05;;;;;;;18.62;100.00;100672.20;5213717;56;1141145;-66
2022/08/23 03:07:06;;;;;;;8.88;2.30;;;;;;;18.57;100.00;100672.66;5213622;56;1141071;-65
2022/08/23 03:12:13;;;;;;;4.50;1.77;;;;;;;18.54;100.00;100674.33;5203829;56;1141104;-65
2022/08/23 03:17:21;;;;;;;5.08;1.57;;;;;;;18.52;100.00;100680.85;5169146;56;1141063;-67
2022/08/23 03:22:28;;;;;;;5.10;1.95;;;;;;;18.51;100.00;100682.69;5213661;56;1141088;-65
2022/08/23 03:27:35;;;;;;;5.67;2.35;;;;;;;18.50;100.00;100681.02;5213846;56;1141073;-64
2022/08/23 03:32:41;;;;;;;3.40;2.62;;;;;;;18.56;100.00;100679.02;5213526;56;1141096;-67
2022/08/23 03:37:47;;;;;;;6.80;2.45;;;;;;;18.60;100.00;100693.80;5213790;56;1141389;-67
2022/08/23 03:42:53;;;;;;;3.50;2.02;;;;;;;18.58;100.00;100694.47;5213640;56;1141131;-65
2022/08/23 03:48:01;;;;;;;2.65;2.20;;;;;;;18.60;100.00;100701.00;5200377;56;1141370;-65
2022/08/23 03:53:09;;;;;;;3.87;1.87;;;;;;;18.59;100.00;100700.66;5170707;56;1141103;-67
2022/08/23 03:58:16;;;;;;;4.10;2.10;;;;;;;18.60;100.00;100702.34;5211154;56;1141218;-68
2022/08/23 04:03:22;;;;;;;4.85;2.50;;;;;;;18.60;100.00;100706.35;5193549;56;1141091;-68
2022/08/23 04:08:31;;;;;;;8.33;2.45;;;;;;;18.60;100.00;100704.52;5133765;56;1141093;-65
2022/08/23 04:13:38;;;;;;;6.78;2.75;;;;;;;18.65;100.00;100708.52;5128597;57;1141369;-66
2022/08/23 04:18:45;;;;;;;2.55;1.82;;;;;;;18.68;100.00;100702.33;5146220;56;1141142;-65
2022/08/23 04:23:52;;;;;;;6.83;2.17;;;;;;;18.70;100.00;100700.32;5128633;57;1141227;-64
2022/08/23 04:28:59;;;;;;;7.45;2.33;;;;;;;18.75;100.00;100706.03;5128500;57;1141144;-68
2022/08/23 04:34:06;;;;;;;5.00;2.27;;;;;;;18.77;100.00;100705.86;5144544;56;1141362;-67
2022/08/23 04:39:12;;;;;;;11.50;2.35;;;;;;;18.80;100.00;100694.28;5193282;56;1141309;-67
2022/08/23 04:44:19;;;;;;;5.72;2.10;;;;;;;18.85;100.00;100697.31;5202307;56;1143213;-66
2022/08/23 04:49:25;;;;;;;3.70;1.95;;;;;;;18.90;100.00;100698.15;5214096;56;1141160;-66
2022/08/23 04:54:31;;;;;;;7.30;1.94;;;;;;;18.83;100.00;100680.55;5188624;56;1141088;-68
2022/08/23 04:59:42;;;;;;;5.80;2.70;;;;;;;18.78;100.00;100681.58;5167317;57;1141174;-66
2022/08/23 05:04:48;;;;;;;3.20;2.40;;;;;;;18.76;100.00;100680.91;5139564;56;1141089;-67
2022/08/23 05:09:54;;;;;;;5.60;2.58;;;;;;;18.70;100.00;100684.25;5127961;56;1140566;-67
2022/08/23 05:14:59;;;;;;;4.30;3.05;;;;;;;18.70;100.00;100690.11;5135669;56;1141047;-65
2022/08/23 05:20:09;;;;;;;2.50;1.75;;;;;;;18.69;100.00;100685.75;5213490;56;1141159;-65
2022/08/23 05:25:15;;;;;;;8.98;3.50;;;;;;;18.74;100.00;100690.95;5133111;56;1141288;-67
2022/08/23 05:30:21;;;;;;;3.33;2.55;;;;;;;18.74;100.00;100691.45;5127728;57;1141101;-65
2022/08/23 05:35:28;;;;;;;4.37;2.65;;;;;;;18.79;100.00;100698.50;5127718;57;1141088;-66
2022/08/23 05:40:33;;;;;;;5.12;2.45;;;;;;;18.83;100.00;100693.11;5187655;56;1138986;-66
2022/08/23 05:45:41;;;;;;;8.00;3.08;;;;;;;18.86;100.00;100689.60;5212467;56;1138954;-67
2022/08/23 05:50:47;;;;;;;7.55;3.10;;;;;;;18.88;100.00;100691.61;5213352;56;1139099;-64
2022/08/23 05:55:53;;;;;;;5.40;2.85;;;;;;;18.91;100.00;100691.79;5213356;56;1138874;-68
2022/08/23 06:01:00;;;;;;;3.75;3.22;;;;;;;18.96;100.00;100697.45;5201958;56;1138956;-66
2022/08/23 06:06:07;;;;;;;6.47;2.87;;;;;;;18.95;100.00;100684.56;5193918;57;1139006;-66
2022/08/23 06:11:21;;;;;;;4.72;2.67;;;;;;;18.97;100.00;100689.75;5188770;57;1139090;-69
2022/08/23 06:16:39;;;;;;;4.37;2.40;;;;;;;19.00;100.00;100677.86;5201192;56;1139137;-65
2022/08/23 06:21:47;;;;;;;4.40;2.62;;;;;;;19.06;100.00;100681.22;5213247;56;1138906;-69
2022/08/23 06:26:55;;;;;;;7.28;2.60;;;;;;;19.09;100.00;100681.72;5212469;56;1138948;-67
2022/08/23 06:32:01;;;;;;;5.97;3.35;;;;;;;19.11;100.00;100684.20;5215533;56;1138971;-65
2022/08/23 06:37:13;;;;;;;5.97;3.62;;;;;;;19.17;100.00;100687.55;5223526;56;1139002;-68
2022/08/23 06:42:37;;;;;;;6.30;3.08;;;;;;;19.25;100.00;100706.30;5223563;56;1140983;-67
2022/08/23 06:47:43;;;;;;;9.75;3.47;;;;;;;19.32;100.00;100700.59;5223492;56;1141097;-68
2022/08/23 06:52:51;;;;;;;5.67;3.20;;;;;;;19.38;100.00;100695.91;5223429;56;1141086;-65
2022/08/23 06:58:05;;;;;;;5.78;2.98;;;;;;;19.51;100.00;100715.01;5203962;56;1141052;-65
2022/08/23 07:03:16;;;;;;;7.67;3.60;;;;;;;19.62;100.00;100707.92;5166318;56;1141092;-68
2022/08/23 07:08:40;;;;;;;11.30;4.67;;;;;;;19.71;100.00;100709.25;5175764;56;1141140;-68
2022/08/23 07:13:46;;;;;;;14.78;5.95;;;;;;;19.74;100.00;100715.08;5188293;56;1143236;-68
2022/08/23 07:18:54;;;;;;;8.63;4.92;;;;;;;19.78;100.00;100710.21;5183644;56;1143114;-66
2022/08/23 07:24:00;;;;;;;7.50;4.50;;;;;;;19.81;100.00;100709.88;5193718;56;1141290;-67
2022/08/23 07:29:10;;;;;;;10.55;5.12;;;;;;;19.82;100.00;100712.38;5184942;56;1141098;-68
2022/08/23 07:34:17;;;;;;;11.22;6.02;;;;;;;19.80;100.00;100715.74;5180392;56;1143102;-66
2022/08/23 07:39:25;;;;;;;9.38;5.80;;;;;;;19.81;100.00;100721.95;5200296;56;1143142;-69
2022/08/23 07:44:33;;;;;;;10.45;6.75;;;;;;;19.81;100.00;100720.61;5204392;56;1141083;-66
2022/08/23 07:49:40;;;;;;;18.00;8.03;;;;;;;19.85;100.00;100731.34;5168842;56;1143230;-68
2022/08/23 07:54:46;;;;;;;13.85;7.83;;;;;;;19.88;100.00;100733.65;5198710;56;1143204;-67
2022/08/23 08:00:09;;;;;;;;;;;;;;;19.91;100.00;100734.14;5017119;56;1143241;-67
2022/08/23 08:05:17;;;;;;;15.45;8.08;;;;;;;19.96;100.00;100739.00;5204898;56;978347;-64
2022/08/23 08:10:24;;;;;;;18.00;8.93;;;;;;;20.01;100.00;100740.66;5202282;56;1141098;-64
2022/08/23 08:15:30;;;;;;;11.12;8.10;;;;;;;20.06;100.00;100744.98;5201576;56;1143214;-68
2022/08/23 08:20:39;;;;;;;12.00;7.40;;;;;;;20.10;100.00;100754.88;5203026;56;1143128;-66
2022/08/23 08:26:07;;;;;;;12.00;6.47;;;;;;;20.12;100.00;100760.92;5206736;56;1143211;-64
2022/08/23 08:31:14;;;;;;;11.18;6.22;;;;;;;20.11;100.00;100764.11;5212874;56;1141084;-64
2022/08/23 08:36:39;;;;;;;18.00;7.70;;;;;;;20.13;100.00;100771.99;5178460;56;1141088;-64
2022/08/23 08:42:00;;;;;;;14.40;6.48;;;;;;;20.12;100.00;100779.20;5208551;56;1141043;-67
2022/08/23 08:47:14;;;;;;;12.75;6.65;;;;;;;20.17;100.00;100788.06;5217096;56;1141014;-66
2022/08/23 08:52:42;;;;;;;10.65;7.20;;;;;;;20.19;100.00;100790.07;5225895;56;1141370;-66
2022/08/23 08:57:53;;;;;;;8.38;6.05;;;;;;;20.21;100.00;100793.42;5205337;56;21143;-67
2022/08/23 09:03:03;;;;;;;10.80;7.50;;;;;;;20.22;100.00;100797.28;5149063;56;1136992;-68
2022/08/23 09:08:32;;;;;;;14.80;7.40;;;;;;;20.24;100.00;100800.63;5210816;56;1143264;-67
2022/08/23 09:14:11;;;;;;;15.45;8.70;;;;;;;20.27;100.00;100799.45;5181238;56;1143133;-66
2022/08/23 09:19:21;;;;;;;11.60;8.43;;;;;;;20.32;100.00;100799.74;5064512;58;1143311;-67
2022/08/23 09:24:29;;;;;;;19.95;9.63;;;;;;;20.34;100.00;100809.81;5171696;56;1143068;-66
2022/08/23 09:29:44;;;;;;;21.60;10.07;;;;;;;20.36;100.00;100809.16;5209220;56;1143049;-68
2022/08/23 09:34:49;;;;;;;19.42;9.48;;;;;;;20.37;100.00;100801.44;5237222;56;1145443;-69
2022/08/23 09:40:18;;;;;;;18.32;10.15;;;;;;;20.40;100.00;100809.16;5246771;56;1143165;-68
2022/08/23 09:45:40;;;;;;;17.75;9.68;;;;;;;20.40;100.00;100804.29;5246522;56;1145423;-66
2022/08/23 09:50:55;;;;;;;12.90;9.43;;;;;;;20.40;100.00;100805.63;5211566;56;1143205;-67
2022/08/23 09:56:15;;;;;;;15.68;10.38;;;;;;;20.41;100.00;100809.48;5246572;56;1142508;-68
2022/08/23 10:01:30;;;;;;;19.95;11.35;;;;;;;20.40;100.00;100807.81;5189660;56;1145256;-67
2022/08/23 10:06:47;;;;;;;15.45;10.03;;;;;;;20.50;100.00;100812.45;5159723;57;1143212;-68
2022/08/23 10:11:54;;;;;;;18.27;11.57;;;;;;;20.54;100.00;100823.69;5159921;57;1143169;-66
2022/08/23 10:17:25;;;;;;;15.05;9.50;;;;;;;20.53;100.00;100827.39;5197145;56;1143187;-65
2022/08/23 10:22:53;;;;;;;14.83;10.30;;;;;;;20.58;100.00;100826.36;5204550;56;1141164;-66
2022/08/23 10:33:50;;;;;;;16.48;10.23;;;;;;;20.65;100.00;100823.28;5205315;56;1145379;-67
2022/08/23 10:39:16;;;;;;;18.57;11.90;;;;;;;20.65;100.00;100824.63;5178582;56;1145228;-68
2022/08/23 10:44:43;;;;;;;21.48;12.58;;;;;;;20.66;100.00;100825.80;5177556;56;1145181;-68
2022/08/23 10:49:54;;;;;;;22.67;12.58;;;;;;;20.70;100.00;100826.29;5176860;56;1145275;-67
2022/08/23 10:55:15;;;;;;;18.57;13.48;;;;;;;20.77;100.00;100825.92;5181447;56;1145207;-66
2022/08/23 11:00:20;;;;;;;18.75;12.28;;;;;;;20.83;100.00;100821.67;5173169;56;1145266;-64
2022/08/23 11:05:34;;;;;;;19.65;12.85;;;;;;;20.85;100.00;100816.95;5181253;56;1145353;-67
2022/08/23 11:10:50;;;;;;;19.15;11.55;;;;;;;20.91;100.00;100827.00;5179166;56;1145288;-67
2022/08/23 11:16:18;;;;;;;25.30;10.65;;;;;;;20.93;100.00;100818.26;5204328;56;1145211;-65
2022/08/23 11:21:41;;;;;;;22.55;12.55;;;;;;;20.97;100.00;100812.32;5234738;56;1145301;-68
2022/08/23 11:26:55;;;;;;;19.57;14.58;;;;;;;21.07;100.00;100808.06;5189490;56;1143157;-66
2022/08/23 11:32:21;;;;;;;18.05;12.37;;;;;;;21.19;100.00;100803.09;5093929;57;1143409;-66
2022/08/23 11:37:32;;;;;;;22.93;13.20;;;;;;;21.29;100.00;100794.28;5175705;56;1143182;-68
2022/08/23 11:42:49;;;;;;;34.75;15.15;;;;;;;21.35;100.00;100792.22;5143174;56;1143204;-66
2022/08/23 11:48:35;;;;;;;20.55;13.03;;;;;;;21.43;100.00;100789.95;5188806;56;1143207;-67
2022/08/23 11:53:55;;;;;;;34.93;14.47;;;;;;;21.51;100.00;100797.95;5188170;56;1145448;-66
2022/08/23 11:59:20;;;;;;;18.12;13.25;;;;;;;21.65;100.00;100790.41;5102084;57;1145233;-68
2022/08/23 12:04:45;;;;;;;23.55;12.25;;;;;;;21.80;100.00;100797.15;5191860;56;1145236;-65
2022/08/23 12:09:54;;;;;;;15.72;11.90;;;;;;;21.89;100.00;100803.59;5168820;56;1145261;-65
2022/08/23 12:15:05;;;;;;;24.07;11.03;;;;;;;21.99;100.00;100795.25;5167435;56;1145507;-66
2022/08/23 12:20:15;;;;;;;24.05;13.15;;;;;;;22.03;100.00;100794.70;5176423;56;1145263;-68
2022/08/23 12:25:23;;;;;;;18.00;12.47;;;;;;;22.04;100.00;100799.07;5177197;56;1145354;-66
2022/08/23 12:30:43;;;;;;;19.92;13.15;;;;;;;22.06;100.00;100790.80;5174779;56;1145577;-65
2022/08/23 12:36:08;;;;;;;29.65;12.90;;;;;;;22.15;100.00;100780.78;5143613;56;1145382;-66
2022/08/23 12:41:29;;;;;;;19.23;11.60;;;;;;;22.27;100.00;100773.38;5132790;56;1145269;-68
2022/08/23 12:46:42;;;;;;;24.20;12.50;;;;;;;22.45;100.00;100781.89;5186954;56;1145434;-68
2022/08/23 12:51:55;;;;;;;25.68;13.30;;;;;;;22.56;100.00;100778.36;5188914;56;1145407;-66
2022/08/23 12:57:08;;;;;;;;;;;;;;;22.63;100.00;100780.09;5191324;56;1143185;-64
2022/08/23 13:02:24;;;;;;;15.78;11.95;;;;;;;22.64;100.00;100774.19;5167779;56;976508;-65
2022/08/23 13:07:31;;;;;;;26.20;12.87;;;;;;;22.67;100.00;100786.78;5158337;56;1141104;-68
2022/08/23 13:12:38;;;;;;;40.30;13.53;;;;;;;22.68;100.00;100795.19;5169920;56;1143127;-65
2022/08/23 13:17:44;;;;;;;28.92;12.35;;;;;;;22.67;100.00;100796.73;5204343;56;1143104;-67
2022/08/23 13:23:04;;;;;;;29.70;12.18;;;;;;;22.70;100.00;100798.53;5214205;56;1143151;-67
2022/08/23 13:28:29;;;;;;;16.80;11.08;;;;;;;22.85;100.00;100788.23;5229097;56;1143130;-65
2022/08/23 13:33:36;;;;;;;33.95;13.30;;;;;;;23.01;100.00;100782.59;5210689;56;1141148;-65
2022/08/23 13:38:43;;;;;;;30.25;12.95;;;;;;;23.23;100.00;100777.98;5153621;55;1141055;-65
2022/08/23 13:43:50;;;;;;;23.42;12.05;;;;;;;23.43;100.00;100778.98;5162035;57;1145411;-68
2022/08/23 13:49:15;;;;;;;23.27;10.37;;;;;;;23.53;100.00;100772.75;5089195;57;1145288;-65
2022/08/23 13:54:21;;;;;;;28.27;12.05;;;;;;;23.73;100.00;100775.59;5193893;56;1145265;-64
2022/08/23 13:59:34;;;;;;;26.55;10.98;;;;;;;23.80;100.00;100773.26;5202211;56;1145263;-66
2022/08/23 14:04:41;;;;;;;19.70;10.90;;;;;;;23.81;100.00;100778.15;5226147;56;1145237;-65
2022/08/23 14:09:47;;;;;;;29.50;10.93;;;;;;;23.82;100.00;100780.66;5197109;56;1145263;-64
2022/08/23 14:14:55;;;;;;;22.27;10.68;;;;;;;23.86;100.00;100786.47;5198343;56;1145469;-65
2022/08/23 14:20:03;;;;;;;31.37;9.80;;;;;;;23.91;100.00;100777.77;5217585;56;1145280;-64
2022/08/23 14:25:09;;;;;;;21.50;10.38;;;;;;;23.97;100.00;100770.23;5223517;56;1143352;-68
2022/08/23 14:30:35;;;;;;;29.92;9.80;;;;;;;23.98;100.00;100774.60;5239019;56;1145222;-66
2022/08/23 14:35:42;;;;;;;26.00;10.43;;;;;;;24.14;100.00;100768.31;5165295;56;1143206;-67
2022/08/23 14:40:56;;;;;;;21.77;9.28;;;;;;;24.31;100.00;100762.59;5160362;57;1145354;-68
2022/08/23 14:46:03;;;;;;;30.27;10.28;;;;;;;24.46;100.00;100749.23;5194053;56;1143136;-66
2022/08/23 14:51:32;;;;;;;18.70;9.90;;;;;;;24.54;100.00;100750.41;5247370;56;1145171;-66
2022/08/23 14:56:39;;;;;;;20.95;8.83;;;;;;;24.56;100.00;100756.13;5244969;56;1143197;-68
2022/08/23 15:01:47;;;;;;;22.32;8.73;;;;;;;24.65;100.00;100741.37;5247528;56;1142906;-67
2022/08/23 15:06:55;;;;;;;27.30;9.73;;;;;;;24.69;100.00;100751.58;5163219;56;1143205;-64
2022/08/23 15:12:02;;;;;;;29.27;8.65;;;;;;;24.69;100.00;100747.52;5181005;56;1143243;-66
2022/08/23 15:17:08;;;;;;;19.48;10.88;;;;;;;24.69;100.00;100743.98;5193860;56;1143424;-65
2022/08/23 15:22:14;;;;;;;19.48;9.00;;;;;;;24.74;100.00;100753.16;5212504;56;1145237;-65
2022/08/23 15:27:20;;;;;;;21.77;8.08;;;;;;;24.88;100.00;100742.66;5247615;56;1143106;-67
2022/08/23 15:32:26;;;;;;;20.10;7.92;;;;;;;24.99;100.00;100749.36;5247386;56;1143172;-64
2022/08/23 15:37:33;;;;;;;18.85;7.72;;;;;;;25.06;100.00;100763.70;5242091;56;1141039;-65
2022/08/23 15:42:39;;;;;;;27.30;8.58;;;;;;;25.14;100.00;100768.09;5223182;56;1141151;-65
2022/08/23 15:47:55;;;;;;;15.35;7.60;;;;;;;25.23;100.00;100760.07;5022761;58;1141324;-67
2022/08/23 15:53:01;;;;;;;20.90;7.53;;;;;;;25.29;100.00;100760.59;5149457;56;1141372;-67
2022/08/23 15:58:07;;;;;;;19.55;7.87;;;;;;;25.27;100.00;100763.20;5232614;56;1141064;-65
2022/08/23 16:03:13;;;;;;;16.57;7.33;;;;;;;25.13;100.00;100768.62;5149143;56;1141315;-68
2022/08/23 16:08:27;;;;;;;21.48;8.05;;;;;;;25.14;100.00;100766.75;5148918;57;1141119;-66
2022/08/23 16:13:33;;;;;;;29.07;7.08;;;;;;;25.14;100.00;100775.70;5195337;56;1141152;-68
2022/08/23 16:18:38;;;;;;;15.35;7.65;;;;;;;25.14;100.00;100782.98;5235514;56;1141116;-67
2022/08/23 16:23:45;;;;;;;20.52;7.25;;;;;;;25.12;100.00;100785.89;5191203;56;1141154;-67
2022/08/23 16:28:54;;;;;;;20.40;7.37;;;;;;;25.12;100.00;100794.53;5235314;56;1141282;-64
2022/08/23 16:34:02;;;;;;;17.52;6.75;;;;;;;25.09;100.00;100809.83;5214855;56;1141381;-69
2022/08/23 16:39:09;;;;;;;21.45;6.83;;;;;;;25.02;100.00;100823.37;5185323;56;1141056;-65
2022/08/23 16:44:15;;;;;;;22.37;7.55;;;;;;;24.95;100.00;100823.03;5218943;56;1139403;-65
2022/08/23 16:49:22;;;;;;;18.57;6.33;;;;;;;24.84;100.00;100813.11;5184182;56;1138998;-66
2022/08/23 16:54:29;;;;;;;20.42;7.36;;;;;;;24.72;100.00;100810.69;5194690;56;1143186;-68
2022/08/23 16:59:35;;;;;;;22.40;9.77;;;;;;;24.65;100.00;100809.83;5231226;56;1143187;-68
2022/08/23 17:04:41;;;;;;;29.63;9.55;;;;;;;24.66;100.00;100813.36;5238182;56;1143119;-68
2022/08/23 17:09:47;;;;;;;22.87;10.53;;;;;;;24.62;100.00;100821.56;5223364;56;1147776;-68
2022/08/23 17:14:55;;;;;;;42.05;12.43;;;;;;;24.56;100.00;100816.46;5200001;56;1145845;-67
2022/08/23 17:20:01;;;;;;;22.52;9.63;;;;;;;24.51;100.00;100827.88;5192613;56;1145455;-69
2022/08/23 17:25:09;;;;;;;36.53;9.05;;;;;;;24.46;100.00;100828.99;5178354;56;1143393;-65
2022/08/23 17:30:18;;;;;;;19.17;8.53;;;;;;;24.43;100.00;100842.11;5198183;56;1143058;-68
2022/08/23 17:35:29;;;;;;;34.25;8.80;;;;;;;24.38;100.00;100843.22;5189141;56;1143117;-66
2022/08/23 17:40:40;;;;;;;22.65;9.50;;;;;;;24.32;100.00;100846.20;5178709;56;1143137;-68
2022/08/23 17:45:50;;;;;;;34.75;7.60;;;;;;;24.26;100.00;100842.12;5224582;56;1142491;-65
2022/08/23 17:50:58;;;;;;;29.65;8.78;;;;;;;24.20;100.00;100839.15;5192646;56;1143176;-64
2022/08/23 17:56:04;;;;;;;25.02;9.33;;;;;;;24.11;100.00;100841.70;5236024;56;1143103;-68
2022/08/23 18:01:10;;;;;;;28.07;12.18;;;;;;;24.04;100.00;100846.23;5156120;57;1143144;-66
2022/08/23 18:06:17;;;;;;;30.88;15.00;;;;;;;23.99;100.00;100858.66;5162118;57;1145245;-68
2022/08/23 18:11:24;;;;;;;27.98;13.48;;;;;;;24.01;100.00;100853.38;5187886;56;1145269;-68
2022/08/23 18:16:32;;;;;;;29.82;13.98;;;;;;;23.93;100.00;100859.46;5188609;56;1145223;-66
2022/08/23 18:21:40;;;;;;;30.27;12.70;;;;;;;23.78;100.00;100859.56;5249656;56;1145488;-68
2022/08/23 18:32:09;;;;;;;29.18;11.75;;;;;;;23.59;100.00;100861.59;5135004;56;1145549;-68
2022/08/23 18:37:16;;;;;;;25.02;13.20;;;;;;;23.50;100.00;100862.23;5130782;57;1145413;-68
2022/08/23 18:42:21;;;;;;;22.02;11.57;;;;;;;23.41;100.00;100862.03;5150576;56;1145539;-68
2022/08/23 18:47:28;;;;;;;22.25;11.78;;;;;;;23.37;100.00;100871.56;5197331;56;1145246;-65
2022/08/23 18:52:34;;;;;;;26.68;11.83;;;;;;;23.35;100.00;100872.27;5189198;56;1145204;-67
2022/08/23 18:57:39;;;;;;;25.02;12.13;;;;;;;23.30;100.00;100871.49;5246089;56;1145248;-66
2022/08/23 19:02:45;;;;;;;19.35;10.53;;;;;;;23.25;100.00;100876.63;5221444;56;1145246;-67
2022/08/23 19:07:51;;;;;;;26.82;14.95;;;;;;;23.23;100.00;100876.48;5198611;56;1145309;-66
2022/08/23 19:12:57;;;;;;;26.07;12.58;;;;;;;23.15;100.00;100881.00;5166660;56;1145219;-66
2022/08/23 19:18:04;;;;;;;26.77;11.33;;;;;;;23.13;100.00;100884.41;5221487;56;1145291;-67
2022/08/23 19:23:10;;;;;;;21.20;10.20;;;;;;;23.08;100.00;100885.48;5247481;56;1145391;-69
2022/08/23 19:28:18;;;;;;;18.17;8.03;;;;;;;22.98;100.00;100893.57;5211955;56;1145588;-67
2022/08/23 19:33:24;;;;;;;17.20;7.35;;;;;;;22.88;100.00;100902.49;5202084;56;1141313;-68
2022/08/23 19:38:30;;;;;;;14.50;8.05;;;;;;;22.75;100.00;100913.93;5206740;56;1141464;-68
2022/08/23 19:43:37;;;;;;;51.85;25.52;;;;;;;22.69;100.00;100921.41;5197121;56;1141271;-67
2022/08/23 19:48:48;;;;;;;23.60;10.48;;;;;;;22.64;100.00;100927.36;5201999;56;1143172;-66
2022/08/23 19:54:05;;;;;;;19.55;9.45;;;;;;;22.53;100.00;100929.19;5198822;56;1143247;-64
2022/08/23 19:59:16;;;;;;;19.62;8.68;;;;;;;22.42;100.00;100938.59;5184397;56;1141070;-67
2022/08/23 20:04:24;;;;;;;29.85;15.10;;;;;;;22.40;100.00;100943.33;5222782;56;1141366;-68
2022/08/23 20:09:32;;;;;;;66.10;32.80;;;;;;;22.41;100.00;100945.51;5235773;56;1143081;-66
2022/08/23 20:14:38;;;;;;;42.83;19.15;;;;;;;22.36;100.00;100951.45;5235413;56;1143119;-69
2022/08/23 20:19:45;;;;;;;82.35;27.95;;;;;;;22.26;100.00;100954.94;5235553;56;1143166;-66
2022/08/23 20:24:51;;;;;;;272.85;87.42;;;;;;;22.22;100.00;100946.05;5235579;56;1143123;-69
2022/08/23 20:29:58;;;;;;;103.70;32.70;;;;;;;22.19;100.00;100941.02;5235577;56;1145233;-68
2022/08/23 20:35:07;;;;;;;311.73;83.62;;;;;;;22.14;100.00;100934.02;5235458;56;1143489;-66
2022/08/23 20:40:16;;;;;;;193.30;58.23;;;;;;;22.15;100.00;100924.92;5239521;56;1147435;-69
2022/08/23 20:45:23;;;;;;;93.63;29.13;;;;;;;22.13;100.00;100930.48;5316588;55;1147328;-67
2022/08/23 20:50:31;;;;;;;95.63;31.47;;;;;;;22.09;100.00;100927.31;5235664;56;1145247;-67
2022/08/23 20:55:38;;;;;;;96.53;27.20;;;;;;;22.02;100.00;100929.05;5235239;56;1145241;-66
2022/08/23 21:00:43;;;;;;;136.85;41.50;;;;;;;;;;5153017;56;1145355;-69
2022/08/23 21:05:48;;;;;;;38.25;13.98;;;;;;;21.95;100.00;100932.14;5240996;56;824441;-67
2022/08/23 21:10:54;;;;;;;92.82;28.70;;;;;;;21.89;100.00;100930.16;5235290;56;1143170;-67
2022/08/23 21:16:00;;;;;;;65.60;25.75;;;;;;;21.86;100.00;100932.37;5210336;56;1145475;-68
2022/08/23 21:21:06;;;;;;;95.55;36.63;;;;;;;21.93;100.00;100926.09;5133660;57;1145457;-66
2022/08/23 21:26:12;;;;;;;43.10;21.57;;;;;;;21.93;100.00;100928.79;4961628;59;1145355;-66
2022/08/23 21:31:22;;;;;;;43.10;17.65;;;;;;;21.92;100.00;100934.36;4867602;60;1145338;-68
2022/08/23 21:36:29;;;;;;;22.50;11.00;;;;;;;21.96;100.00;100926.25;4880087;59;1145398;-68
2022/08/23 21:41:42;;;;;;;15.18;10.15;;;;;;;22.06;100.00;100930.88;4958583;59;1145208;-68
2022/08/23 21:46:49;;;;;;;20.20;9.55;;;;;;;22.11;100.00;100935.22;5039437;58;1145510;-69
2022/08/23 21:51:55;;;;;;;15.45;9.08;;;;;;;22.06;100.00;100943.00;5079550;58;1143205;-65
2022/08/23 21:57:01;;;;;;;13.53;6.97;;;;;;;21.96;100.00;100931.63;5092021;57;1143183;-66
2022/08/23 22:02:07;;;;;;;11.50;7.28;;;;;;;21.92;100.00;100934.36;5095820;57;1143358;-69
2022/08/23 22:07:13;;;;;;;12.75;6.47;;;;;;;21.88;100.00;100937.08;5103016;57;1143284;-67
2022/08/23 22:12:19;;;;;;;14.63;7.15;;;;;;;21.98;100.00;100937.17;5102112;57;1143126;-69
2022/08/23 22:17:25;;;;;;;11.35;6.92;;;;;;;22.08;100.00;100943.66;5101903;57;1143194;-66
2022/08/23 22:22:32;;;;;;;14.87;6.62;;;;;;;21.99;100.00;100938.87;5117071;57;1143116;-66
2022/08/23 22:27:38;;;;;;;15.83;8.10;;;;;;;21.86;100.00;100944.50;5116898;57;1143153;-65
2022/08/23 22:32:44;;;;;;;9.85;7.03;;;;;;;21.73;100.00;100945.12;5124318;57;1143357;-66
2022/08/23 22:37:50;;;;;;;17.32;6.08;;;;;;;21.60;100.00;100952.45;5141021;57;1141072;-69
2022/08/23 22:42:55;;;;;;;12.00;5.72;;;;;;;21.56;100.00;100947.10;5140920;57;1143213;-68
2022/08/23 22:48:01;;;;;;;10.25;5.45;;;;;;;21.52;100.00;100947.16;5202964;56;1143224;-68
2022/08/23 22:53:07;;;;;;;10.53;5.70;;;;;;;21.47;100.00;100946.84;5227044;56;1143168;-65
2022/08/23 22:58:13;;;;;;;15.05;6.45;;;;;;;21.44;100.00;100941.81;5183130;56;1143294;-68
2022/08/23 23:03:20;;;;;;;10.15;5.62;;;;;;;21.44;100.00;100933.73;5045849;58;1143173;-67
2022/08/23 23:08:26;;;;;;;6.90;5.35;;;;;;;21.39;100.00;100942.34;5045914;58;1143268;-68
2022/08/23 23:13:32;;;;;;;7.17;5.10;;;;;;;21.42;100.00;100942.50;5098137;57;1141057;-67